STS Fryderyk Chopin — SPS2298 — position and weather

sailwx.info

Track history (hours):
 
Tides and Currents Weather Stations Pressure Air Temp Water Temp Dewpoint Dewpoint Depression Visibility Wind Speed Wind Dir Waves Ship Positions

STS Fryderyk Chopin (Poland)

Ship's website: http://www.fryderykchopin.pl/

Last reported at 2018-Nov-06 08:10 UTC. Time now 2018-Dec-11 00:38 UTC.
Position N 36°09' W 005°21'.
Warning: this ship's position is 34 days out of date.

Length 44 m; draft 4.2 m.

Type: Sailing vessel. MMSI: 261000290.

Date/timePositionNaut miles runAvg speedWind from/ knotsBaromVisibWave heightAir tempDewpointWater temp
2018-Nov-06 08:10N 36°09' W 005°21'1 3.3
2018-Nov-06 08:01N 36°10' W 005°22'0 7.7
2018-Nov-06 08:00N 36°10' W 005°22'4 6.3
2018-Nov-06 07:21N 36°06' W 005°20'  
2018-Nov-02 18:36N 37°20' W 001°35'0 4.5
2018-Nov-02 18:30N 37°20' W 001°35'2 4.9
2018-Nov-02 18:03N 37°22' W 001°34'0 5.0
2018-Nov-02 18:00N 37°23' W 001°34'2 3.2
2018-Nov-02 17:30N 37°24' W 001°34'0 0.2
2018-Nov-02 17:02N 37°24' W 001°34'0 0.1
2018-Nov-02 16:56N 37°24' W 001°34'0 0.0
2018-Nov-02 16:26N 37°24' W 001°34'0 0.0
2018-Nov-02 16:02N 37°24' W 001°34'0 0.0
2018-Nov-02 15:56N 37°24' W 001°34'0 0.0
2018-Nov-02 15:26N 37°24' W 001°34'0 0.0
2018-Nov-02 15:02N 37°24' W 001°34'0 0.0
2018-Nov-02 14:56N 37°24' W 001°34'0 0.0
2018-Nov-02 14:26N 37°24' W 001°34'0 0.0
2018-Nov-02 13:56N 37°24' W 001°34'0 0.0
2018-Nov-02 13:26N 37°24' W 001°34'0 0.0
2018-Nov-02 13:02N 37°24' W 001°34'0 0.0
2018-Nov-02 12:56N 37°24' W 001°34'0 0.0
2018-Nov-02 12:26N 37°24' W 001°34'0 0.0
2018-Nov-02 12:02N 37°24' W 001°34'0 0.1
2018-Nov-02 11:56N 37°24' W 001°34'0 0.0
2018-Nov-02 11:26N 37°24' W 001°34'0 0.0
2018-Nov-02 11:02N 37°24' W 001°34'0 0.0
2018-Nov-02 10:56N 37°24' W 001°34'0 0.0
2018-Nov-02 10:26N 37°24' W 001°34'0 0.1
2018-Nov-02 10:03N 37°24' W 001°34'0 1.3
2018-Nov-02 10:00N 37°24' W 001°34'1 1.6
2018-Nov-02 09:27N 37°24' W 001°33'0 0.0
2018-Nov-02 08:39N 37°24' W 001°33'0 0.0
2018-Nov-02 07:09N 37°24' W 001°33'0 0.1
2018-Nov-02 06:51N 37°24' W 001°33'0 0.0
2018-Nov-02 06:09N 37°24' W 001°33'0 0.1
2018-Nov-02 06:03N 37°24' W 001°33'0 0.0
2018-Nov-02 05:57N 37°24' W 001°33'0 0.0
2018-Nov-02 04:33N 37°24' W 001°33'0 0.0
2018-Nov-02 03:53N 37°24' W 001°33'0 0.1
2018-Nov-02 03:15N 37°24' W 001°33'0 0.0
2018-Nov-02 02:57N 37°24' W 001°33'0 0.0
2018-Nov-02 02:27N 37°24' W 001°33'0 0.0
2018-Nov-02 01:28N 37°24' W 001°33'0 0.0
2018-Nov-01 23:45N 37°24' W 001°33'0 0.0
2018-Nov-01 23:09N 37°24' W 001°33'0 0.0
2018-Nov-01 22:52N 37°24' W 001°33'0 0.0
2018-Nov-01 22:21N 37°24' W 001°33'0 0.1
2018-Nov-01 21:59N 37°24' W 001°33'26 2.2
2018-Nov-01 09:47N 37°18' W 001°01'2 5.6
2018-Nov-01 09:31N 37°19' W 000°60'4 8.8
2018-Nov-01 09:03N 37°22' W 000°56'1 9.5
2018-Nov-01 08:59N 37°22' W 000°55'5 9.6
2018-Nov-01 08:30N 37°25' W 000°51'4 9.2
2018-Nov-01 08:03N 37°28' W 000°48'0 8.8
2018-Nov-01 08:00N 37°29' W 000°47'4 7.9
2018-Nov-01 07:31N 37°32' W 000°44'4 8.3
2018-Nov-01 07:03N 37°34' W 000°41'0 8.5
2018-Nov-01 07:01N 37°35' W 000°40'4 8.9
2018-Nov-01 06:31N 37°38' W 000°36'4 8.5
2018-Nov-01 06:03N 37°41' W 000°34'0 8.4
2018-Nov-01 06:01N 37°42' W 000°34'4 8.2
2018-Nov-01 05:31N 37°46' W 000°33'3 7.6
2018-Nov-01 05:04N 37°49' W 000°32'0 7.0
2018-Nov-01 05:01N 37°49' W 000°32'4 7.1
2018-Nov-01 04:30N 37°53' W 000°31'4 7.8
2018-Nov-01 04:03N 37°56' W 000°29'0 6.7
2018-Nov-01 04:00N 37°56' W 000°29'3 6.0
2018-Nov-01 03:30N 37°59' W 000°28'3 4.8
2018-Nov-01 02:54N 38°02' W 000°27'3 0.1
2018-Oct-30 08:58N 38°04' W 000°24'3 5.2
2018-Oct-30 08:28N 38°01' W 000°24'2 5.4
2018-Oct-30 08:03N 37°59' W 000°25'0 5.3
2018-Oct-30 07:59N 37°59' W 000°25'3 5.4
2018-Oct-30 07:30N 37°56' W 000°25'2 4.7
2018-Oct-30 07:03N 37°54' W 000°25'0 4.4
2018-Oct-30 07:00N 37°54' W 000°25'2 3.8
2018-Oct-30 06:30N 37°52' W 000°25'2 4.0
2018-Oct-30 06:03N 37°50' W 000°25'0 4.3
2018-Oct-30 06:00N 37°50' W 000°25'2 4.1
2018-Oct-30 05:30N 37°48' W 000°26'2 4.0
2018-Oct-30 05:01N 37°46' W 000°26'0 4.1
2018-Oct-30 04:59N 37°46' W 000°26'2 4.0
2018-Oct-30 04:30N 37°44' W 000°26'1 3.3
2018-Oct-30 04:03N 37°42' W 000°26'0 3.2
2018-Oct-30 04:00N 37°42' W 000°26'2 3.8
2018-Oct-30 03:30N 37°40' W 000°27'2 4.0
2018-Oct-30 03:03N 37°39' W 000°27'0 4.2
2018-Oct-30 03:00N 37°38' W 000°27'2 4.3
2018-Oct-30 02:30N 37°36' W 000°28'2 4.7
2018-Oct-30 02:03N 37°34' W 000°29'0 4.9
2018-Oct-30 02:00N 37°34' W 000°29'3 6.3
2018-Oct-30 01:30N 37°32' W 000°31'3 6.9
2018-Oct-30 01:03N 37°30' W 000°34'0 6.4
2018-Oct-30 01:00N 37°30' W 000°35'3 6.3
2018-Oct-30 00:28N 37°28' W 000°39'3 6.6
2018-Oct-30 00:03N 37°27' W 000°42'0 6.7
2018-Oct-30 00:00N 37°26' W 000°42'3 6.0
2018-Oct-29 23:30N 37°25' W 000°45'3 5.8
2018-Oct-29 23:03N 37°23' W 000°48'0 6.2
2018-Oct-29 23:00N 37°23' W 000°48'3 6.2
2018-Oct-29 22:30N 37°21' W 000°51'5 6.6
2018-Oct-29 21:40N 37°19' W 000°57'2 7.1
2018-Oct-29 21:21N 37°17' W 000°60'58 7.1
2018-Oct-29 13:12N 36°46' W 001°60'153 7.7
2018-Oct-28 17:19N 36°08' W 005°04'2 8.4
2018-Oct-28 17:03N 36°08' W 005°07'7 5.4
2018-Oct-28 15:49N 36°08' W 005°15'2 7.3
2018-Oct-28 15:30N 36°07' W 005°18'2 4.9
2018-Oct-28 15:03N 36°06' W 005°20'0 6.8
2018-Oct-28 15:00N 36°06' W 005°21'4 4.6
2018-Oct-28 14:03N 36°02' W 005°24'0 7.9
2018-Oct-28 14:00N 36°02' W 005°24'3 6.4
2018-Oct-28 13:30N 35°59' W 005°25'3 6.7
2018-Oct-28 13:03N 35°58' W 005°29'0 6.0
2018-Oct-28 13:00N 35°58' W 005°29'20 3.7
2018-Oct-28 07:42N 35°54' W 005°53'1 5.1
2018-Oct-28 07:30N 35°55' W 005°54'3 5.1
2018-Oct-28 06:54N 35°57' W 005°56'36 5.8
2018-Oct-28 00:39N 36°24' W 006°26'  
Track history (hours):
 
Tides and Currents Weather Stations Pressure Air Temp Water Temp Dewpoint Dewpoint Depression Visibility Wind Speed Wind Dir Waves Ship Positions

STS Fryderyk Chopin (Poland)

Ship's website: http://www.fryderykchopin.pl/

Last reported at 2018-Nov-06 08:10 UTC. Time now 2018-Dec-11 00:38 UTC.
Position N 36°09' W 005°21'.
Warning: this ship's position is 34 days out of date.

Length 44 m; draft 4.2 m.

Type: Sailing vessel. MMSI: 261000290.

Date/timePositionNaut miles runAvg speedWind from/ knotsBaromVisibWave heightAir tempDewpointWater temp
2018-Nov-06 08:10N 36°09' W 005°21'1 3.3
2018-Nov-06 08:01N 36°10' W 005°22'0 7.7
2018-Nov-06 08:00N 36°10' W 005°22'4 6.3
2018-Nov-06 07:21N 36°06' W 005°20'  
2018-Nov-02 18:36N 37°20' W 001°35'0 4.5
2018-Nov-02 18:30N 37°20' W 001°35'2 4.9
2018-Nov-02 18:03N 37°22' W 001°34'0 5.0
2018-Nov-02 18:00N 37°23' W 001°34'2 3.2
2018-Nov-02 17:30N 37°24' W 001°34'0 0.2
2018-Nov-02 17:02N 37°24' W 001°34'0 0.1
2018-Nov-02 16:56N 37°24' W 001°34'0 0.0
2018-Nov-02 16:26N 37°24' W 001°34'0 0.0
2018-Nov-02 16:02N 37°24' W 001°34'0 0.0
2018-Nov-02 15:56N 37°24' W 001°34'0 0.0
2018-Nov-02 15:26N 37°24' W 001°34'0 0.0
2018-Nov-02 15:02N 37°24' W 001°34'0 0.0
2018-Nov-02 14:56N 37°24' W 001°34'0 0.0
2018-Nov-02 14:26N 37°24' W 001°34'0 0.0
2018-Nov-02 13:56N 37°24' W 001°34'0 0.0
2018-Nov-02 13:26N 37°24' W 001°34'0 0.0
2018-Nov-02 13:02N 37°24' W 001°34'0 0.0
2018-Nov-02 12:56N 37°24' W 001°34'0 0.0
2018-Nov-02 12:26N 37°24' W 001°34'0 0.0
2018-Nov-02 12:02N 37°24' W 001°34'0 0.1
2018-Nov-02 11:56N 37°24' W 001°34'0 0.0
2018-Nov-02 11:26N 37°24' W 001°34'0 0.0
2018-Nov-02 11:02N 37°24' W 001°34'0 0.0
2018-Nov-02 10:56N 37°24' W 001°34'0 0.0
2018-Nov-02 10:26N 37°24' W 001°34'0 0.1
2018-Nov-02 10:03N 37°24' W 001°34'0 1.3
2018-Nov-02 10:00N 37°24' W 001°34'1 1.6
2018-Nov-02 09:27N 37°24' W 001°33'0 0.0
2018-Nov-02 08:39N 37°24' W 001°33'0 0.0
2018-Nov-02 07:09N 37°24' W 001°33'0 0.1
2018-Nov-02 06:51N 37°24' W 001°33'0 0.0
2018-Nov-02 06:09N 37°24' W 001°33'0 0.1
2018-Nov-02 06:03N 37°24' W 001°33'0 0.0
2018-Nov-02 05:57N 37°24' W 001°33'0 0.0
2018-Nov-02 04:33N 37°24' W 001°33'0 0.0
2018-Nov-02 03:53N 37°24' W 001°33'0 0.1
2018-Nov-02 03:15N 37°24' W 001°33'0 0.0
2018-Nov-02 02:57N 37°24' W 001°33'0 0.0
2018-Nov-02 02:27N 37°24' W 001°33'0 0.0
2018-Nov-02 01:28N 37°24' W 001°33'0 0.0
2018-Nov-01 23:45N 37°24' W 001°33'0 0.0
2018-Nov-01 23:09N 37°24' W 001°33'0 0.0
2018-Nov-01 22:52N 37°24' W 001°33'0 0.0
2018-Nov-01 22:21N 37°24' W 001°33'0 0.1
2018-Nov-01 21:59N 37°24' W 001°33'26 2.2
2018-Nov-01 09:47N 37°18' W 001°01'2 5.6
2018-Nov-01 09:31N 37°19' W 000°60'4 8.8
2018-Nov-01 09:03N 37°22' W 000°56'1 9.5
2018-Nov-01 08:59N 37°22' W 000°55'5 9.6
2018-Nov-01 08:30N 37°25' W 000°51'4 9.2
2018-Nov-01 08:03N 37°28' W 000°48'0 8.8
2018-Nov-01 08:00N 37°29' W 000°47'4 7.9
2018-Nov-01 07:31N 37°32' W 000°44'4 8.3
2018-Nov-01 07:03N 37°34' W 000°41'0 8.5
2018-Nov-01 07:01N 37°35' W 000°40'4 8.9
2018-Nov-01 06:31N 37°38' W 000°36'4 8.5
2018-Nov-01 06:03N 37°41' W 000°34'0 8.4
2018-Nov-01 06:01N 37°42' W 000°34'4 8.2
2018-Nov-01 05:31N 37°46' W 000°33'3 7.6
2018-Nov-01 05:04N 37°49' W 000°32'0 7.0
2018-Nov-01 05:01N 37°49' W 000°32'4 7.1
2018-Nov-01 04:30N 37°53' W 000°31'4 7.8
2018-Nov-01 04:03N 37°56' W 000°29'0 6.7
2018-Nov-01 04:00N 37°56' W 000°29'3 6.0
2018-Nov-01 03:30N 37°59' W 000°28'3 4.8
2018-Nov-01 02:54N 38°02' W 000°27'3 0.1
2018-Oct-30 08:58N 38°04' W 000°24'3 5.2
2018-Oct-30 08:28N 38°01' W 000°24'2 5.4
2018-Oct-30 08:03N 37°59' W 000°25'0 5.3
2018-Oct-30 07:59N 37°59' W 000°25'3 5.4
2018-Oct-30 07:30N 37°56' W 000°25'2 4.7
2018-Oct-30 07:03N 37°54' W 000°25'0 4.4
2018-Oct-30 07:00N 37°54' W 000°25'2 3.8
2018-Oct-30 06:30N 37°52' W 000°25'2 4.0
2018-Oct-30 06:03N 37°50' W 000°25'0 4.3
2018-Oct-30 06:00N 37°50' W 000°25'2 4.1
2018-Oct-30 05:30N 37°48' W 000°26'2 4.0
2018-Oct-30 05:01N 37°46' W 000°26'0 4.1
2018-Oct-30 04:59N 37°46' W 000°26'2 4.0
2018-Oct-30 04:30N 37°44' W 000°26'1 3.3
2018-Oct-30 04:03N 37°42' W 000°26'0 3.2
2018-Oct-30 04:00N 37°42' W 000°26'2 3.8
2018-Oct-30 03:30N 37°40' W 000°27'2 4.0
2018-Oct-30 03:03N 37°39' W 000°27'0 4.2
2018-Oct-30 03:00N 37°38' W 000°27'2 4.3
2018-Oct-30 02:30N 37°36' W 000°28'2 4.7
2018-Oct-30 02:03N 37°34' W 000°29'0 4.9
2018-Oct-30 02:00N 37°34' W 000°29'3 6.3
2018-Oct-30 01:30N 37°32' W 000°31'3 6.9
2018-Oct-30 01:03N 37°30' W 000°34'0 6.4
2018-Oct-30 01:00N 37°30' W 000°35'3 6.3
2018-Oct-30 00:28N 37°28' W 000°39'3 6.6
2018-Oct-30 00:03N 37°27' W 000°42'0 6.7
2018-Oct-30 00:00N 37°26' W 000°42'3 6.0
2018-Oct-29 23:30N 37°25' W 000°45'3 5.8
2018-Oct-29 23:03N 37°23' W 000°48'0 6.2
2018-Oct-29 23:00N 37°23' W 000°48'3 6.2
2018-Oct-29 22:30N 37°21' W 000°51'5 6.6
2018-Oct-29 21:40N 37°19' W 000°57'2 7.1
2018-Oct-29 21:21N 37°17' W 000°60'58 7.1
2018-Oct-29 13:12N 36°46' W 001°60'153 7.7
2018-Oct-28 17:19N 36°08' W 005°04'2 8.4
2018-Oct-28 17:03N 36°08' W 005°07'7 5.4
2018-Oct-28 15:49N 36°08' W 005°15'2 7.3
2018-Oct-28 15:30N 36°07' W 005°18'2 4.9
2018-Oct-28 15:03N 36°06' W 005°20'0 6.8
2018-Oct-28 15:00N 36°06' W 005°21'4 4.6
2018-Oct-28 14:03N 36°02' W 005°24'0 7.9
2018-Oct-28 14:00N 36°02' W 005°24'3 6.4
2018-Oct-28 13:30N 35°59' W 005°25'3 6.7
2018-Oct-28 13:03N 35°58' W 005°29'0 6.0
2018-Oct-28 13:00N 35°58' W 005°29'20 3.7
2018-Oct-28 07:42N 35°54' W 005°53'1 5.1
2018-Oct-28 07:30N 35°55' W 005°54'3 5.1
2018-Oct-28 06:54N 35°57' W 005°56'36 5.8
2018-Oct-28 00:39N 36°24' W 006°26'  

Dump ship's entire track history